Tiempo atmosférico en la estación meteorológica de Zamora, Zamora (656 m.)



Fecha
DESCASC
Temp. máxima en grados centígrados (hora)
DESCASC
Temp. mínima en grados centígrados (hora)
DESCASC
Temp. media en grados centígrados
DESCASC
Racha de viento máxima en m/sg (hora)
DESCASC
Velocidad máxima media en intervalos de 10 minutos(hora)
DESCASC
Precipitaciones diarias en mm
DESCASC
Precipitaciones de 00:00 a 06:00 en mm
DESCASC
Precipitaciones de 06:00 a 12:00 en mm
DESCASC
Precipitaciones de 12:00 a 18:00 en mm
DESCASC
Precipitaciones de 18:00 a 24:00 en mm
DESCASC
14-12-2019 12.4 (15:10) 9.1 (06:10) 10.8 8.33 (13:50) 3.33 (17:40) 0.2 0 0 0.2 0
13-12-2019 13.2 (14:20) 9.7 (23:59) 11.4 12.5 (01:10) 4.72 (14:10) 0 0 0 0 0
12-12-2019 12.2 (23:20) 5.4 (00:00) 8.8 11.11 (22:10) 4.17 (18:10) 0.2 0 0.2 0 0
11-12-2019 10.8 (14:40) 0.7 (00:00) 5.8 8.89 (23:00) 3.61 (20:10) 0.4 0.2 0.2 0 0
10-12-2019 4.8 (16:30) -0.5 (05:10) 2.2 2.78 (05:30) 1.67 (12:40) 0 0 0 0 0
09-12-2019 11.9 (14:20) 3.1 (23:59) 7.5 5.83 (11:10) 2.78 (11:50) 0 0 0 0 0
08-12-2019 11 (16:00) 0.4 (00:00) 5.7 6.67 (19:40) 2.5 (16:30) 2.8 0 0.2 2.6 0
07-12-2019 5.6 (16:30) 0.8 (00:00) 3.2 2.5 (15:10) 1.39 (03:50) 0 0 0 0 0
06-12-2019 10.3 (16:20) 0.5 (00:00) 5.4 3.89 (00:20) 2.22 (00:20) 0 0 0 0 0
05-12-2019 11.2 (16:00) 0.6 (00:00) 5.9 9.17 (15:30) 5.83 (15:30) 0 0 0 0 0
04-12-2019 -- (--) -- (--) -- 6.39 (13:30) -- (--) -- 0 0 -- 0
03-12-2019 7 (14:40) 0.1 (00:00) 3.6 10 (11:50) 6.11 (11:50) 0 0 0 0 0
02-12-2019 10.3 (14:30) 2.3 (00:00) 6.3 13.33 (16:00) 7.22 (16:20) 0 0 0 0 0
01-12-2019 9.5 (15:10) 6 (00:00) 7.8 7.78 (16:20) 4.72 (17:10) 2.4 0.6 0.2 1.6 0
30-11-2019 14 (12:40) 6.4 (00:00) 10.2 10.56 (11:40) 4.44 (11:40) 2 0 0.4 1.6 0
29-11-2019 16.2 (14:00) 11.9 (00:00) 14.1 6.39 (23:59) 3.06 (23:59) 6.2 0 0 0 6.2
28-11-2019 14.7 (15:20) 9.8 (04:10) 12.3 10.56 (14:40) 4.72 (15:40) 0.2 0 0 0 0.2
27-11-2019 12.6 (13:20) 8.3 (00:00) 10.5 9.72 (12:40) 4.44 (11:50) 0.2 0 0 0 0.2
26-11-2019 16.8 (14:30) 10.1 (00:00) 13.4 17.22 (17:00) 5.83 (15:50) 2.6 0 1.6 0.4 0.6
25-11-2019 14.7 (12:40) 10.6 (00:10) 12.7 8.61 (15:10) 3.61 (11:30) 1.2 0.6 0.6 0 0
24-11-2019 10.9 (16:10) 4.1 (00:00) 7.5 8.33 (23:30) 3.61 (23:20) 0.6 0 0 0 0.6
23-11-2019 12.4 (14:50) 5.4 (00:00) 8.9 12.78 (02:30) 4.44 (01:20) 0 0 0 0 0
22-11-2019 14.1 (14:50) 7.6 (00:00) 10.9 13.33 (12:30) 5.56 (12:30) 3.8 1 2.2 0.4 0.2
21-11-2019 12.5 (14:40) 5.7 (00:00) 9.1 6.67 (04:10) 2.78 (01:50) 1 0.6 0 0.4 0
20-11-2019 8.8 (17:10) 5.8 (03:50) 7.3 6.67 (15:50) 3.06 (16:10) 8.8 2.4 5.4 1 0
19-11-2019 8.3 (16:20) -1 (-00:0) 3.7 3.61 (23:10) 1.67 (12:30) 0 0 0 0 0
18-11-2019 13 (15:10) 1 (00:00) 7 5.28 (15:20) 3.06 (15:20) 0 0 0 0 0
17-11-2019 12.4 (14:50) 4.6 (00:00) 8.5 8.61 (13:30) 3.33 (13:30) 0 0 0 0 0
16-11-2019 10.5 (15:10) 0 (00:00) 5.3 7.22 (17:50) 3.33 (16:50) 0 0 0 0 0

Gráficas

Temp. máximas Temp. mínimas Temp. medias Precipitaciones Rachas de viento máximas Velocidades máximas media en intervalos de 10 minutos

Datos horarios

Fecha y hora oficial Temperatura (ºC) Velocidad del viento (km/h) Dirección del viento Racha (km/h) Dirección de racha Precipitación (mm) Presión (hPa) Tendencia (hPa) Humedad (%)
2019-12-15 23:00:00 9.7 4 Sur 14 Sudeste 0 930.8 -1.2 86
2019-12-15 22:00:00 9.9 6 Sur 19 Sur 0 931.1 -1.3 86
2019-12-15 21:00:00 10.2 8 Sur 22 Oeste 0 931.7 -0.9 85
2019-12-15 20:00:00 10.6 6 Sur 13 Sudoeste 0 932 -0.8 81
2019-12-15 19:00:00 11.2 7 Sudoeste 22 Sudoeste 0 932.4 -0.5 78
2019-12-15 18:00:00 11.9 7 Sudoeste 30 Sudoeste 0 932.6 -1 74
2019-12-15 17:00:00 12.8 10 Sudoeste 29 Sudoeste 0 932.8 -1.8 70
2019-12-15 16:00:00 13.3 11 Sudoeste 44 Sudoeste 0 932.9 -2.7 67
2019-12-15 15:00:00 13.2 14 Sudoeste 35 Sudoeste 0 933.6 -2.8 67
2019-12-15 14:00:00 13.4 15 Sudoeste 44 Sudoeste 0 934.6 -2.1 67
2019-12-15 13:00:00 12.6 11 Sudoeste 37 Sudoeste 0 935.6 -0.7 71
2019-12-15 12:00:00 11.5 15 Sudoeste 37 Sudoeste 0 936.4 0.2 74
2019-12-15 11:00:00 11.5 12 Sudoeste 31 Sudoeste 0 936.7 0.5 74
2019-12-15 10:00:00 10 10 Sudoeste 25 Sur 0 936.3 -0.1 78
2019-12-15 09:00:00 9.6 10 Sudoeste 28 Oeste 0 936.2 -0.6 81
2019-12-15 08:00:00 9.3 12 Sudoeste 35 Sudoeste 0 936.2 -0.9 82
2019-12-15 07:00:00 9.6 10 Sudoeste 27 Sudoeste 0 936.4 -1.2 82
2019-12-15 06:00:00 9.9 10 Sudoeste 31 Sudoeste 0 936.8 -1.1 81
2019-12-15 05:00:00 10 13 Sudoeste 27 Sudoeste 0 937.1 -1.3 82
2019-12-15 04:00:00 10.2 13 Sudoeste 32 Oeste 0 937.6 -1.5 82
2019-12-15 03:00:00 10 8 Sudoeste 27 Sudoeste 0 937.9 -1.5 84
2019-12-15 02:00:00 9.9 11 Sudoeste 28 Sudoeste 0 938.4 -1.3 85
2019-12-15 01:00:00 9.9 10 Sudoeste 25 Sudoeste 0 939.1 -0.7 85
2019-12-15 00:00:00 10 10 Sudoeste 26 Sudoeste 0 939.4 -0.5 85
2019-12-14 23:00:00 10.1 12 Sudoeste 26 Sudoeste 0 939.7 -0.3 84
2019-12-14 22:00:00 10.1 9 Sudoeste 22 Oeste 0 939.8 -0.1 86
2019-12-14 21:00:00 10.1 10 Sudoeste 20 Sudoeste 0 939.9 0 84
2019-12-14 20:00:00 10.2 11 Sudoeste 21 Sudoeste 0 940 -0.4 83
2019-12-14 19:00:00 10.2 6 Sudoeste 20 Sudoeste 0 939.9 -0.2 86
2019-12-14 18:00:00 10.4 9 Sudoeste 28 Oeste 0 939.9 -0.4 86
2019-12-14 17:00:00 10.7 8 Sudoeste 24 Sur 0.2 940.4 -0.6 89
2019-12-14 16:00:00 11.9 7 Sudoeste 28 Sudoeste 0 940.1 -1.4 74
2019-12-14 15:00:00 12.3 8 Sudoeste 23 Sudoeste 0 940.3 -1.9 74
2019-12-14 14:00:00 11.7 10 Sudoeste 30 Sudoeste 0 941 -1.4 79
2019-12-14 13:00:00 11.4 8 Sudoeste 21 Sudoeste 0 941.5 -0.8 81
2019-12-14 12:00:00 11.2 8 Sudoeste 23 Sudoeste 0 942.2 0.2 81
2019-12-14 11:00:00 10.2 9 Sudoeste 22 Sudoeste 0 942.4 0.5 85
2019-12-14 10:00:00 9.5 7 Sudoeste 22 Sudoeste 0 942.3 0.8 88
2019-12-14 09:00:00 9.2 10 Sudoeste 20 Sudoeste 0 942 0.8 87
2019-12-14 08:00:00 9.2 8 Sudoeste 18 Sudoeste 0 941.9 0.5 87
2019-12-14 07:00:00 9.1 6 Sudoeste 22 Oeste 0 941.5 -0.2 87
2019-12-14 06:00:00 9.2 6 Sudoeste 16 Oeste 0 941.2 -0.3 87
2019-12-14 05:00:00 9.4 6 Sudoeste 17 Sudoeste 0 941.4 -0.3 85
2019-12-14 04:00:00 9.7 9 Oeste 21 Sudoeste 0 941.7 0.1 84
2019-12-14 03:00:00 9.6 5 Oeste 22 Sudoeste 0 941.5 -0.1 85
2019-12-14 02:00:00 9.5 6 Oeste 20 Oeste 0 941.7 0.1 84
2019-12-14 01:00:00 9.4 9 Sudoeste 19 Oeste 0 941.6 0.5 81
2019-12-14 00:00:00 9.7 10 Oeste 25 Sudoeste 0 941.6 0.3 80
2019-12-13 23:00:00 10.2 7 Oeste 30 Oeste 0 941.6 0.6 78
2019-12-13 22:00:00 10.9 14 Oeste 33 Noroeste 0 941.1 0.5 79
2019-12-13 21:00:00 11.3 10 Oeste 30 Oeste 0 941.3 0.8 82
2019-12-13 20:00:00 11.4 12 Sudoeste 33 Oeste 0 941 0.2 84
2019-12-13 19:00:00 11.6 12 Oeste 32 Oeste 0 940.6 -0.3 84
2019-12-13 18:00:00 12.2 13 Sudoeste 30 Sudoeste 0 940.5 -0.4 82
2019-12-13 17:00:00 12.5 10 Oeste 33 Sudoeste 0 940.8 0.1 81
2019-12-13 16:00:00 12.8 13 Oeste 30 Oeste 0 940.9 0 82
2019-12-13 15:00:00 12.4 13 Oeste 36 Oeste 0 940.9 0.3 87
2019-12-13 14:00:00 13 15 Oeste 36 Oeste 0 940.7 0.1 81
2019-12-13 13:00:00 12.9 15 Oeste 40 Oeste 0 940.9 1.1 79
2019-12-13 12:00:00 12.7 13 Oeste 33 Oeste 0 940.6 1.1 80
2019-12-13 11:00:00 12.1 13 Oeste 41 Oeste 0 940.6 1.4 81
2019-12-13 10:00:00 11.6 16 Oeste 37 Sudoeste 0 939.8 2 79
2019-12-13 09:00:00 11.1 12 Sudoeste 32 Oeste 0 939.5 2.1 79
2019-12-13 08:00:00 11.2 12 Oeste 39 Oeste 0 939.2 2.3 77
2019-12-13 07:00:00 11.3 14 Oeste 37 Sudoeste 0 937.8 0.5 76
2019-12-13 06:00:00 11.6 12 Oeste 35 Sudoeste 0 937.4 0.4 77
2019-12-13 05:00:00 11.8 13 Oeste 31 Oeste 0 936.9 0.1 80
2019-12-13 04:00:00 12.1 10 Oeste 30 Sudoeste 0 937.3 0.2 81
2019-12-13 03:00:00 12.1 12 Oeste 37 Sudoeste 0 937 0 83
2019-12-13 02:00:00 12.1 12 Oeste 45 Oeste 0 936.8 -0.3 83
2019-12-13 01:00:00 12.1 10 Oeste 35 Sudoeste 0 937.1 0.4 84
2019-12-13 00:00:00 12.2 12 Oeste 40 Oeste 0 937 0.3 84
2019-12-12 23:00:00 11.9 11 Oeste 40 Oeste 0 937.1 -0.2 86
2019-12-12 22:00:00 11.7 10 Sudoeste 31 Sudoeste 0 936.7 0.4 88
2019-12-12 21:00:00 11.5 11 Oeste 31 Sudoeste 0 936.7 0.2 87
2019-12-12 20:00:00 11.4 10 Oeste 33 Oeste 0 937.3 0.7 87
2019-12-12 19:00:00 11 14 Oeste 34 Oeste 0 936.3 -1.1 88
2019-12-12 18:00:00 10.4 13 Oeste 37 Oeste 0 936.5 -1.7 88
2019-12-12 17:00:00 9.9 12 Sudoeste 36 Oeste 0 936.6 -2.3 87
2019-12-12 16:00:00 9.3 13 Sudoeste 31 Oeste 0 937.4 -3.1 86
2019-12-12 15:00:00 8.8 12 Sudoeste 36 Oeste 0 938.2 -3.4 88
2019-12-12 14:00:00 8.8 14 Oeste 39 Oeste 0 938.9 -3.1 85
2019-12-12 13:00:00 8.3 12 Sudoeste 36 Oeste 0 940.5 -2.7 88
2019-12-12 12:00:00 8.3 12 Sudoeste 32 Oeste 0 941.6 -1.4 85
2019-12-12 11:00:00 7.2 11 Sudoeste 27 Sudoeste 0 942 -1.3 92
2019-12-12 10:00:00 7 10 Sudoeste 30 Sudoeste 0 943.2 -0.7 92
2019-12-12 09:00:00 6.8 9 Sudoeste 20 Sudoeste 0 943 -1.5 91
2019-12-12 08:00:00 6.5 9 Sudoeste 22 Sudoeste 0.2 943.3 -1.7 93
2019-12-12 07:00:00 6.3 9 Sudoeste 25 Sudoeste 0 943.9 -2.3 92
2019-12-12 06:00:00 6 10 Sudoeste 28 Sudoeste 0 944.5 -2.1 94
2019-12-12 05:00:00 5.7 10 Sudoeste 26 Sudoeste 0 945 -2.2 91
2019-12-12 04:00:00 5.9 9 Sudoeste 23 Sudoeste 0 946.2 -1.9 90
2019-12-12 03:00:00 5.5 9 Sudoeste 19 Oeste 0 946.6 -1.7 90
2019-12-12 02:00:00 5.6 10 Sudoeste 26 Sudoeste 0 947.2 -1.3 89
2019-12-12 01:00:00 5.4 9 Sudoeste 22 Sudoeste 0 948.1 -0.6 88
2019-12-12 00:00:00 5.4 9 Oeste 23 Oeste 0 948.3 -0.5 88
2019-12-11 23:00:00 5.7 13 Oeste 32 Oeste 0 948.5 -0.3 85
2019-12-11 22:00:00 6 10 Oeste 32 Oeste 0 948.7 0 82
2019-12-11 21:00:00 5.8 11 Oeste 28 Sudoeste 0 948.8 0.1 78
2019-12-11 20:00:00 6.3 11 Oeste 28 Oeste 0 948.8 0.6 76
2019-12-11 19:00:00 6.5 8 Oeste 21 Oeste 0 948.7 0.6 72
2019-12-11 18:00:00 7.5 7 Oeste 23 Oeste 0 948.7 0.8 65
2019-12-11 17:00:00 8.5 9 Oeste 28 Oeste 0 948.2 0.2 57
2019-12-11 16:00:00 10 8 Oeste 28 Noroeste 0 948.1 -0.1 52
2019-12-11 15:00:00 10.6 8 Oeste 21 Noroeste 0 947.9 -0.6 53
2019-12-11 14:00:00 10 7 Oeste 15 Oeste 0 948 0.2 64
2019-12-11 13:00:00 9.2 5 Oeste 16 Noroeste 0 948.2 1 74
2019-12-11 12:00:00 8.1 6 Oeste 20 Oeste 0 948.5 2.1 81
2019-12-11 11:00:00 6.5 6 Oeste 20 Sudoeste 0 947.8 2.1 89
2019-12-11 10:00:00 4.9 6 Oeste 23 Oeste 0 947.2 2.1 95
2019-12-11 09:00:00 5.1 6 Oeste 19 Noroeste 0 946.4 1.3 97
2019-12-11 08:00:00 4.8 8 Oeste 18 Sudoeste 0 945.7 0.4 97
2019-12-11 07:00:00 4.5 6 Oeste 21 Sudoeste 0.2 945.1 -0.7 96
2019-12-11 06:00:00 4 6 Oeste 21 Oeste 0.2 945.1 -1.2 96
2019-12-11 05:00:00 1.5 2 Sur 12 Sur 0 945.3 -1.6 97
2019-12-11 04:00:00 1 4 Sudoeste 11 Sudoeste 0 945.8 -1.9 100
2019-12-11 03:00:00 0.7 3 Sur 5 Sur 0 946.3 -1.7 98
2019-12-11 02:00:00 1.4 2 Noroeste 4 Sur 0 946.9 -1.3 97
2019-12-11 01:00:00 2.8 0 Calma 8 Sudoeste 0 947.7 -0.9 99
2019-12-11 00:00:00 2.7 2 Oeste 8 Oeste 0 948 -0.7 100
2019-12-10 23:00:00 2.1 0 Calma 6 Sur 0 948.2 -0.9 99
2019-12-10 22:00:00 2.4 2 Noroeste 6 Sudeste 0 948.6 -0.9 99
2019-12-10 21:00:00 3.8 0 Calma 9 Sur 0 948.7 -0.6 99
2019-12-10 20:00:00 4.3 5 Sudeste 9 Sur 0 949.1 -0.4 99
2019-12-10 19:00:00 4.3 0 Calma 5 Norte 0 949.5 -0.5 97
2019-12-10 18:00:00 4.7 3 Norte 5 Sudeste 0 949.3 -1.4 97
2019-12-10 17:00:00 4.8 0 Calma 5 Norte 0 949.5 -1.9 97
2019-12-10 16:00:00 4.5 3 Sudeste 9 Sur 0 950 -2.5 97
2019-12-10 15:00:00 4 4 Sudeste 9 Sudeste 0 950.7 -3 95
2019-12-10 14:00:00 3.3 2 Norte 6 Noroeste 0 951.4 -2.5 98
2019-12-10 13:00:00 2.1 5 Sudeste 10 Sudeste 0 952.5 -1.6 100
2019-12-10 12:00:00 1.1 4 Noroeste 6 Norte 0 953.7 -0.4 100
2019-12-10 11:00:00 0.2 0 Calma 5 Norte 0 953.9 0.4 100
2019-12-10 10:00:00 -0.4 3 Nordeste 7 Norte 0 954.1 0.5 100
2019-12-10 09:00:00 -0.4 5 Noroeste 8 Norte 0 954.1 0.4 100
2019-12-10 08:00:00 -0.2 4 Norte 9 Norte 0 953.5 -0.6 100
2019-12-10 07:00:00 0.2 3 Nordeste 5 Norte 0 953.6 -0.9 100
2019-12-10 06:00:00 0.1 3 Norte 10 Este 0 953.7 -0.6 100
2019-12-10 05:00:00 -0.4 5 Sur 9 Sur 0 954.1 -0.4 99
2019-12-10 04:00:00 -0.3 0 Calma 4 Nordeste 0 954.5 -0.4 98
2019-12-10 03:00:00 0 2 Norte 3 Norte 0 954.3 -0.6 97
2019-12-10 02:00:00 0.8 2 Nordeste 5 Sudeste 0 954.5 -0.5 96
2019-12-10 01:00:00 2.2 3 Este 5 Este 0 954.9 0.2 95
2019-12-10 00:00:00 3.1 0 Calma 6 Noroeste 0 954.9 0.2 96
2019-12-09 23:00:00 3.4 0 Calma 5 Noroeste 0 955 1 92
2019-12-09 22:00:00 4.4 3 Noroeste 5 Noroeste 0 954.7 0.8 94
2019-12-09 21:00:00 5.2 2 Norte 5 Oeste 0 954.7 1.5 91
2019-12-09 20:00:00 6.4 3 Oeste 5 Oeste 0 954 0.9 88
2019-12-09 19:00:00 7.3 2 Noroeste 7 Oeste 0 953.9 1.5 83
2019-12-09 18:00:00 8.8 3 Oeste 10 Oeste 0 953.2 0.9 76
2019-12-09 17:00:00 9.9 3 Oeste 13 Oeste 0 953.1 0.4 72
2019-12-09 16:00:00 11 5 Oeste 16 Oeste 0 952.4 -0.6 71
2019-12-09 15:00:00 11.3 4 Sudoeste 16 Sudoeste 0 952.3 -1.1 69
2019-12-09 14:00:00 11.4 5 Oeste 15 Sudoeste 0 952.7 -0.9 69
2019-12-09 13:00:00 9.4 6 Oeste 14 Oeste 0 953 -0.2 76
2019-12-09 12:00:00 7.5 8 Sudoeste 21 Sudoeste 0 953.4 0.3 86
2019-12-09 11:00:00 6.1 8 Oeste 19 Oeste 0 953.6 0.8 91
2019-12-09 10:00:00 5.4 6 Oeste 17 Oeste 0 953.2 1 92
2019-12-09 09:00:00 5.2 5 Oeste 17 Oeste 0 953.1 1.1 94
2019-12-09 08:00:00 5.5 4 Oeste 13 Sudoeste 0 952.8 1.2 94
2019-12-09 07:00:00 5.6 6 Oeste 17 Sudoeste 0 952.2 0.5 93
2019-12-09 06:00:00 6.5 5 Oeste 13 Noroeste 0 952 0.3 93
2019-12-09 05:00:00 6.8 5 Oeste 13 Sudoeste 0 951.6 0.2 93
2019-12-09 04:00:00 7.3 5 Sudoeste 16 Oeste 0 951.7 0.1 93
2019-12-09 03:00:00 7.5 4 Sudoeste 13 Oeste 0 951.7 0.6 94
2019-12-09 02:00:00 7.7 4 Oeste 10 Sudoeste 0 951.4 1.3 96
2019-12-09 01:00:00 8.1 2 Noroeste 12 Noroeste 0 951.6 1.8 97
2019-12-09 00:00:00 8.6 4 Oeste 12 Oeste 0 951.1 1.3 97
2019-12-08 23:00:00 9.1 4 Oeste 15 Oeste 0 950.1 0.9 96
2019-12-08 22:00:00 9.7 4 Oeste 14 Oeste 0 949.8 1.2 96
2019-12-08 21:00:00 10.2 5 Oeste 18 Noroeste 0 949.8 1.9 96
2019-12-08 20:00:00 10.4 6 Oeste 24 Oeste 0 949.2 1.5 98
2019-12-08 19:00:00 10.7 5 Oeste 19 Oeste 0 948.6 0.9 97
2019-12-08 18:00:00 10.8 6 Oeste 18 Sudoeste 0 947.9 0.4 96
2019-12-08 17:00:00 11 8 Oeste 21 Oeste 0 947.7 -0.2 96
2019-12-08 16:00:00 11 8 Oeste 16 Sudoeste 0.2 947.7 -0.6 96
2019-12-08 15:00:00 10.5 6 Sudoeste 13 Sudoeste 0 947.5 -1.1 96
2019-12-08 14:00:00 9.7 5 Oeste 10 Sudoeste 0.8 947.9 -0.7 99
2019-12-08 13:00:00 8.9 4 Sudoeste 15 Sudoeste 1.6 948.3 0.2 99
2019-12-08 12:00:00 8.5 5 Oeste 14 Sudoeste 0.2 948.6 0.7 100
2019-12-08 11:00:00 7.2 4 Sudoeste 14 Oeste 0 948.6 0.2 100
2019-12-08 10:00:00 3.8 0 Calma 7 Sur 0 948.1 0.1 100
2019-12-08 09:00:00 2.5 4 Sur 8 Sudeste 0 947.9 -0.1 100
2019-12-08 08:00:00 1.6 3 Sudeste 8 Sur 0 948.4 0.3 100
2019-12-08 07:00:00 1.3 4 Sur 8 Sur 0 948 -0.3 100
2019-12-08 06:00:00 1 2 Este 6 Sudeste 0 948 -0.7 100
2019-12-08 05:00:00 0.9 0 Calma 4 Norte 0 948.1 -0.5 100
2019-12-08 04:00:00 0.7 3 Sudeste 7 Sudeste 0 948.3 -0.5 100
2019-12-08 03:00:00 0.4 3 Norte 6 Norte 0 948.7 0 100
2019-12-08 02:00:00 0.9 3 Nordeste 6 Norte 0 948.6 -0.1 99
2019-12-08 01:00:00 1.7 3 Norte 5 Norte 0 948.8 0.2 99
2019-12-08 00:00:00 2.2 2 Norte 5 Sudeste 0 948.7 0.4 99
2019-12-07 23:00:00 2.6 4 Sur 8 Sur 0 948.7 0.6 99
2019-12-07 22:00:00 2.9 2 Nordeste 5 Nordeste 0 948.6 0.9 99
2019-12-07 21:00:00 3.6 4 Nordeste 5 Nordeste 0 948.3 0.9 99
2019-12-07 20:00:00 4.3 2 Norte 7 Sudeste 0 948.1 1.1 99
2019-12-07 19:00:00 4.8 0 Calma 4 Norte 0 947.7 0.5 99
2019-12-07 18:00:00 5.1 0 Calma 5 Sur 0 947.4 0.1 97
2019-12-07 17:00:00 5.5 3 Este 8 Este 0 947 -0.9 97
2019-12-07 16:00:00 5.3 3 Este 9 Sudeste 0 947.2 -1.3 97
2019-12-07 15:00:00 5 4 Sur 8 Sudoeste 0 947.3 -1.6 95
2019-12-07 14:00:00 4.4 4 Sur 8 Sur 0 947.9 -0.6 97
2019-12-07 13:00:00 3.8 2 Este 8 Nordeste 0 948.5 0.4 100
2019-12-07 12:00:00 3 4 Nordeste 8 Norte 0 948.9 1.1 100
2019-12-07 11:00:00 2.7 4 Nordeste 7 Este 0 948.5 0.7 100
2019-12-07 10:00:00 2.1 2 Nordeste 5 Norte 0 948.1 0.9 100
2019-12-07 09:00:00 1.3 2 Sur 4 Nordeste 0 947.8 0.8 99
2019-12-07 08:00:00 1 0 Calma 5 Norte 0 947.8 1.2 97
2019-12-07 07:00:00 1.6 0 Calma 5 Este 0 947.2 0.2 97
2019-12-07 06:00:00 1.8 3 Nordeste 6 Nordeste 0 947 -0.4 96
2019-12-07 05:00:00 2.8 0 Calma 5 Norte 0 946.6 -0.9 95
2019-12-07 04:00:00 3.2 3 Sur 6 Sur 0 947 -0.3 97
2019-12-07 03:00:00 2.8 2 Noroeste 3 Sur 0 947.4 0.2 97
2019-12-07 02:00:00 2.3 2 Nordeste 5 Nordeste 0 947.5 0.2 97
2019-12-07 01:00:00 2.9 4 Sur 7 Sur 0 947.3 0.6 96
2019-12-07 00:00:00 3.4 5 Sur 8 Sur 0 947.2 0.5 95
2019-12-06 23:00:00 4 4 Noroeste 4 Noroeste 0 947.3 0.9 91
2019-12-06 22:00:00 5 3 Oeste 7 Noroeste 0 946.7 0.8 92
2019-12-06 21:00:00 5.6 3 Oeste 9 Sur 0 946.7 1.3 90
2019-12-06 20:00:00 5.9 3 Oeste 5 Noroeste 0 946.4 1 87
2019-12-06 19:00:00 7 0 Calma 4 Noroeste 0 945.9 0.4 83
2019-12-06 18:00:00 8.3 3 Sur 5 Sudeste 0 945.4 -0.5 78
2019-12-06 17:00:00 9.3 4 Sudeste 7 Sur 0 945.4 -1 75
2019-12-06 16:00:00 10.1 2 Norte 5 Noroeste 0 945.5 -1.7 72
2019-12-06 15:00:00 9.7 4 Este 9 Este 0 945.9 -1.8 75
2019-12-06 14:00:00 9.3 3 Nordeste 10 Norte 0 946.4 -1.6 76
2019-12-06 13:00:00 7.8 3 Norte 8 Norte 0 947.2 -0.2 79
2019-12-06 12:00:00 6 3 Nordeste 10 Nordeste 0 947.7 0.9 84
2019-12-06 11:00:00 3.6 7 Norte 12 Norte 0 948 1.5 94
2019-12-06 10:00:00 1.4 2 Nordeste 4 Norte 0 947.4 1.1 98
2019-12-06 09:00:00 0.5 3 Noroeste 6 Norte 0 946.8 0.9 97
2019-12-06 08:00:00 0.5 0 Calma 8 Norte 0 946.5 0.4 97
2019-12-06 07:00:00 0.7 5 Norte 8 Noroeste 0 946.3 0.2 96
2019-12-06 06:00:00 0.9 3 Este 10 Nordeste 0 945.9 0 96
2019-12-06 05:00:00 1.3 4 Nordeste 7 Norte 0 946.1 0.1 96
2019-12-06 04:00:00 2.1 4 Norte 7 Norte 0 946.1 -0.3 95
2019-12-06 03:00:00 2.6 3 Noroeste 8 Nordeste 0 945.9 -0.5 94
2019-12-06 02:00:00 3.2 4 Norte 12 Norte 0 946 0 94
2019-12-06 01:00:00 3.5 6 Norte 14 Norte 0 946.4 0.8 93
2019-12-06 00:00:00 4.1 5 Norte 15 Norte 0 946.4 0.7 92
2019-12-05 23:00:00 4.7 4 Noroeste 9 Norte 0 946 0.8 89
2019-12-05 22:00:00 5.5 5 Nordeste 14 Nordeste 0 945.6 0.8 88
2019-12-05 21:00:00 6.5 4 Nordeste 26 Nordeste 0 945.7 1.6 86
2019-12-05 20:00:00 6.5 4 Este 13 Este 0 945.2 1.6 84
2019-12-05 19:00:00 7.8 9 Nordeste 22 Nordeste 0 944.8 1.5 81
2019-12-05 18:00:00 9 9 Nordeste 24 Nordeste 0 944.1 0.8 77
2019-12-05 17:00:00 10.1 18 Nordeste 33 Nordeste 0 943.6 -0.3 68
2019-12-05 16:00:00 11.1 15 Este 33 Nordeste 0 943.3 -0.7 66
2019-12-05 15:00:00 10.7 14 Nordeste 27 Nordeste 0 943.3 -1 67
2019-12-05 14:00:00 9.1 15 Nordeste 28 Nordeste 0 943.9 -0.3 76
2019-12-05 13:00:00 8.7 14 Nordeste 30 Nordeste 0 944 0.3 80
2019-12-05 12:00:00 6.6 10 Nordeste 20 Nordeste 0 944.3 1.6 91
2019-12-05 11:00:00 3 6 Norte 12 Nordeste 0 944.2 2 93
2019-12-05 10:00:00 1.7 7 Nordeste 15 Nordeste 0 943.7 2.1 90
2019-12-05 09:00:00 0.9 3 Nordeste 13 Nordeste 0 942.7 1.6 94
2019-12-05 08:00:00 0.7 8 Nordeste 14 Nordeste 0 942.2 1.5 94
2019-12-05 07:00:00 0.8 6 Norte 10 Norte 0 941.6 0.7 95
2019-12-05 06:00:00 1.2 2 Este 7 Este 0 941.1 0.6 93
2019-12-05 05:00:00 1.2 5 Norte 9 Norte 0 940.7 0.9 95
2019-12-05 04:00:00 0.9 3 Norte 8 Norte 0 940.9 1 94
2019-12-05 03:00:00 1.2 2 Norte 4 Nordeste 0 940.5 1.3 91
2019-12-05 02:00:00 1.7 2 Este 9 Nordeste 0 939.8 1.4 89
2019-12-05 01:00:00 2.4 5 Nordeste 14 Nordeste 0 939.9 2.2 86
2019-12-05 00:00:00 3.5 8 Nordeste 15 Nordeste 0 939.2 1.9 82
2019-12-04 23:00:00 3.8 4 Nordeste 14 Norte 0 938.4 1.4 81
2019-12-04 22:00:00 4.6 5 Norte 9 Nordeste 0 937.7 1.2 87
2019-12-04 21:00:00 4.7 3 Nordeste 5 Nordeste 0 937.3 1.2 91
2019-12-04 20:00:00 5.5 2 Norte 3 Norte 0 937 1.5 90
2019-12-04 19:00:00 6.5 0 Calma 4 Este 0 936.5 1 84
2019-12-04 18:00:00 7.6 3 Este 9 Norte 0 936.1 0.7 82
2019-12-04 17:00:00 8.6 6 Norte 18 Nordeste 0 935.5 -0.3 77
2019-12-04 16:00:00 9.2 13 Nordeste 21 Este 0 935.5 -0.9 72
2019-12-04 15:00:00 -- 13 Nordeste -- -- -- 935.4 -1.4 --
2019-12-04 14:00:00 8.1 11 Nordeste 23 Norte 0 935.8 -1.2 75
2019-12-04 13:00:00 6.9 10 Nordeste 22 Nordeste 0 936.4 -0.5 78
2019-12-04 12:00:00 5.4 10 Nordeste 22 Norte 0 936.8 0.1 81
2019-12-04 11:00:00 2.5 12 Norte 19 Norte 0 937 0.9 90
2019-12-04 10:00:00 0.6 3 Nordeste 10 Nordeste 0 936.9 0.3 92
2019-12-04 09:00:00 -0.1 6 Este 12 Nordeste 0 936.7 0 92
2019-12-04 08:00:00 0.4 8 Norte 15 Norte 0 936.1 -0.8 92
2019-12-04 07:00:00 -0.1 6 Nordeste 13 Norte 0 936.6 -0.6 94
2019-12-04 06:00:00 -0.2 3 Noroeste 22 Norte 0 936.7 -1.1 94
2019-12-04 05:00:00 -0.3 12 Norte 21 Norte 0 936.9 -1.3 95
2019-12-04 04:00:00 -0.4 7 Norte 14 Norte 0 937.2 -1.7 96
2019-12-04 03:00:00 -0.6 5 Norte 12 Noroeste 0 937.8 -0.8 96
2019-12-04 02:00:00 -0.6 4 Nordeste 8 Nordeste 0 938.2 -0.4 95
2019-12-04 01:00:00 -0.5 6 Este 19 Nordeste 0 938.9 0.1 94
2019-12-04 00:00:00 0.1 5 Norte 10 Nordeste 0 938.6 -0.2 93
2019-12-03 23:00:00 0.6 4 Norte 8 Nordeste 0 938.6 0 92
2019-12-03 22:00:00 1.3 4 Nordeste 11 Nordeste 0 938.8 0.6 91
2019-12-03 21:00:00 1.7 4 Nordeste 8 Norte 0 938.8 0.6 89
2019-12-03 20:00:00 2.2 4 Norte 12 Nordeste 0 938.6 0.4 88
2019-12-03 19:00:00 3.4 6 Nordeste 13 Nordeste 0 938.2 -0.2 84
2019-12-03 18:00:00 5 6 Nordeste 14 Nordeste 0 938.2 -0.6 78
2019-12-03 17:00:00 6.1 10 Nordeste 23 Nordeste 0 938.2 -1.4 71
2019-12-03 16:00:00 6.6 10 Nordeste 21 Nordeste 0 938.4 -2.2 69
2019-12-03 15:00:00 6.6 12 Nordeste 23 Nordeste 0 938.8 -2.8 68
2019-12-03 14:00:00 6.1 15 Nordeste 26 Este 0 939.6 -2.4 68
2019-12-03 13:00:00 5.7 17 Nordeste 30 Este 0 940.6 -1.6 72
2019-12-03 12:00:00 5.1 20 Este 36 Nordeste 0 941.6 -0.6 76
2019-12-03 11:00:00 3.2 9 Nordeste 17 Nordeste 0 942 -0.2 87
2019-12-03 10:00:00 1.2 4 Norte 8 Norte 0 942.2 -0.2 92
2019-12-03 09:00:00 0.5 4 Norte 10 Nordeste 0 942.2 -0.2 92
2019-12-03 08:00:00 0.4 5 Nordeste 9 Nordeste 0 942.2 -0.5 92
2019-12-03 07:00:00 0.4 6 Este 13 Nordeste 0 942.4 -0.9 91
2019-12-03 06:00:00 0.7 8 Este 17 Este 0 942.4 -1.1 90
2019-12-03 05:00:00 0.8 5 Nordeste 13 Nordeste 0 942.7 -0.9 91
2019-12-03 04:00:00 1.2 8 Nordeste 12 Nordeste 0 943.3 -1 90
2019-12-03 03:00:00 1.2 6 Este 13 Nordeste 0 943.5 -1.2 89
2019-12-03 02:00:00 1.7 8 Nordeste 17 Nordeste 0 943.6 -1 88
2019-12-03 01:00:00 2 9 Nordeste 19 Nordeste 0 944.3 -0.2 86
2019-12-03 00:00:00 2.3 6 Nordeste 21 Nordeste 0 944.7 0.3 83
2019-12-02 23:00:00 3.1 14 Este 29 Este 0 944.6 0.9 78
2019-12-02 22:00:00 3.8 19 Este 33 Este 0 944.5 1.4 76
2019-12-02 21:00:00 4.4 17 Este 37 Nordeste 0 944.4 1.9 74
2019-12-02 20:00:00 5.4 17 Este 41 Este 0 943.7 1.2 75
2019-12-02 19:00:00 6.3 23 Nordeste 37 Este 0 943.1 1.1 76
2019-12-02 18:00:00 7.3 17 Este 39 Este 0 942.5 0.8 74
2019-12-02 17:00:00 8.4 23 Este 43 Este 0 942.5 0.8 70
2019-12-02 16:00:00 9.5 26 Este 48 Este 0 942 -0.2 66
2019-12-02 15:00:00 9 23 Nordeste 42 Nordeste 0 941.7 -1.1 71
2019-12-02 14:00:00 9.1 22 Este 41 Este 0 941.7 -0.9 76
2019-12-02 13:00:00 9.8 26 Nordeste 45 Nordeste 0 942.2 0 74
2019-12-02 12:00:00 8.6 23 Nordeste 39 Nordeste 0 942.8 1.3 77
2019-12-02 11:00:00 7.1 18 Nordeste 31 Nordeste 0 942.6 1.6 83
2019-12-02 10:00:00 5 9 Nordeste 19 Este 0 942.2 1.9 89
2019-12-02 09:00:00 3.4 10 Nordeste 21 Nordeste 0 941.5 1.6 92
2019-12-02 08:00:00 3 9 Nordeste 20 Nordeste 0 941 1.3 93
2019-12-02 07:00:00 3.3 10 Nordeste 19 Nordeste 0 940.3 0.8 91
2019-12-02 06:00:00 3.7 6 Este 19 Nordeste 0 939.9 0.7 92
2019-12-02 05:00:00 4.3 9 Nordeste 25 Nordeste 0 939.7 1.1 92
2019-12-02 04:00:00 4.6 12 Nordeste 28 Nordeste 0 939.5 1 91
2019-12-02 03:00:00 5.2 13 Nordeste 27 Nordeste 0 939.2 0.8 89
2019-12-02 02:00:00 5.7 13 Nordeste 24 Nordeste 0 938.6 0.3 88
2019-12-02 01:00:00 6.2 11 Nordeste 25 Nordeste 0 938.5 0.5 89
2019-12-02 00:00:00 6.8 15 Nordeste 28 Nordeste 0 938.4 0.8 90
2019-12-01 23:00:00 6.5 10 Nordeste 19 Nordeste 0 938.3 1.1 94
2019-12-01 22:00:00 6.2 10 Nordeste 20 Norte 0 938 1.6 93
2019-12-01 21:00:00 6 9 Norte 17 Norte 0 937.6 1.5 94
2019-12-01 20:00:00 6.7 9 Norte 15 Norte 0 937.2 1.7 93
2019-12-01 19:00:00 7.3 9 Nordeste 21 Nordeste 0 936.4 1.5 91
2019-12-01 18:00:00 7.6 12 Nordeste 27 Nordeste 0.2 936.1 1.6 89
2019-12-01 17:00:00 8.5 14 Nordeste 28 Nordeste 0.2 935.5 1 85
2019-12-01 16:00:00 9.2 15 Nordeste 24 Este 0 934.9 0.3 88
2019-12-01 15:00:00 9.2 10 Nordeste 22 Nordeste 0 934.5 -0.4 88
2019-12-01 14:00:00 9.2 6 Nordeste 13 Nordeste 0.4 934.5 0 91
2019-12-01 13:00:00 8.9 8 Nordeste 11 Nordeste 0.8 934.6 0.8 91
2019-12-01 12:00:00 8.5 6 Nordeste 12 Nordeste 0 934.9 1.8 92
2019-12-01 11:00:00 8.5 4 Este 7 Este 0 934.5 1.5 87
2019-12-01 10:00:00 7.8 3 Este 11 Sur 0 933.8 1.1 88
2019-12-01 09:00:00 7.4 5 Sur 14 Sudoeste 0 933.1 0.1 88
2019-12-01 08:00:00 7.7 6 Sudoeste 18 Sudoeste 0.2 933 -0.7 90
2019-12-01 07:00:00 7.4 6 Sur 21 Sudeste 0 932.7 -1.8 91
2019-12-01 06:00:00 7.4 8 Sur 23 Sudoeste 0.2 933 -2.3 90
2019-12-01 05:00:00 7.3 7 Sur 19 Sur 0.2 933.7 -2.3 89
2019-12-01 04:00:00 7.2 9 Sur 23 Sudoeste 0.2 934.5 -2.2 88
2019-12-01 03:00:00 7.3 8 Sur 19 Sur 0 935.3 -2.3 87
2019-12-01 02:00:00 7.2 7 Sur 21 Sudoeste 0 936 -1.8 89
2019-12-01 01:00:00 7.2 6 Sudoeste 17 Sudoeste 0 936.7 -1.7 88
2019-12-01 00:00:00 6.5 5 Sudoeste 19 Sudoeste 0 937.6 -1.2 90
2019-11-30 23:00:00 6.6 5 Sudoeste 13 Sudoeste 0 937.8 -1.2 89
2019-11-30 22:00:00 7.1 4 Sudoeste 15 Sudoeste 0 938.4 -0.2 86
2019-11-30 21:00:00 7.3 3 Sudoeste 13 Sudoeste 0 938.8 0 87
2019-11-30 20:00:00 7.7 2 Sudoeste 17 Oeste 0 939 0.3 85
2019-11-30 19:00:00 8.6 8 Oeste 21 Sudoeste 0 938.6 -0.5 82
2019-11-30 18:00:00 9.3 8 Oeste 19 Oeste 0 938.8 0 79
2019-11-30 17:00:00 9.6 8 Oeste 26 Oeste 0 938.7 -0.3 77
2019-11-30 16:00:00 9.9 10 Oeste 31 Noroeste 0.8 939.1 0.1 74
2019-11-30 15:00:00 10.7 6 Oeste 23 Noroeste 0.2 938.8 -0.6 87
2019-11-30 14:00:00 11.1 7 Oeste 35 Noroeste 0.6 939 -0.3 91
2019-11-30 13:00:00 12.6 10 Oeste 35 Oeste 0 939 -0.6 83
2019-11-30 12:00:00 13.6 10 Sudoeste 38 Sudoeste 0 939.4 -0.4 90
2019-11-30 11:00:00 13.1 12 Sudoeste 30 Sudoeste 0 939.3 -0.7 92
2019-11-30 10:00:00 12.9 10 Sudoeste 31 Sudoeste 0.4 939.6 -0.7 92
2019-11-30 09:00:00 12.6 10 Sudoeste 27 Sur 0 939.8 -0.9 92
2019-11-30 08:00:00 12.3 8 Sudoeste 27 Sudoeste 0 940 -1.4 94
2019-11-30 07:00:00 12.5 9 Sudoeste 25 Sudoeste 0 940.3 -1.8 90
2019-11-30 06:00:00 12.5 9 Sudoeste 25 Sudoeste 0 940.7 -1.7 90
2019-11-30 05:00:00 12.5 7 Sudoeste 18 Sudoeste 0 941.4 -1.1 91
2019-11-30 04:00:00 12.7 6 Sudoeste 21 Sudoeste 0 942.1 -0.8 90
2019-11-30 03:00:00 13 8 Sudoeste 22 Sudoeste 0 942.4 -0.8 90
2019-11-30 02:00:00 13 8 Sudoeste 24 Sudoeste 0 942.5 -1 90
2019-11-30 01:00:00 13.1 10 Sudoeste 24 Oeste 0 942.9 -0.7 91
2019-11-30 00:00:00 13 11 Sudoeste 23 Sudoeste 0.4 943.2 -0.3 94
2019-11-29 23:00:00 12.8 6 Sudoeste 14 Sudoeste 0.2 943.5 -0.1 96
2019-11-29 22:00:00 12.7 5 Sudoeste 9 Oeste 0.6 943.6 0.3 96
2019-11-29 21:00:00 13 3 Sudoeste 9 Oeste 3.8 943.5 0.3 95
2019-11-29 20:00:00 13.7 4 Sudoeste 8 Sudoeste 1.2 943.6 0.5 90
2019-11-29 19:00:00 14 4 Sudoeste 11 Sudoeste 0 943.3 0.2 85
2019-11-29 18:00:00 14.4 4 Sudoeste 13 Oeste 0 943.2 0 82
2019-11-29 17:00:00 15 6 Oeste 15 Sur 0 943.1 -0.3 76
2019-11-29 16:00:00 15.6 4 Oeste 19 Oeste 0 943.1 -0.7 76
2019-11-29 15:00:00 15.5 8 Oeste 21 Oeste 0 943.2 -0.8 76
2019-11-29 14:00:00 16.1 5 Oeste 17 Sudoeste 0 943.4 -0.5 71
2019-11-29 13:00:00 14.9 8 Oeste 18 Oeste 0 943.8 0.5 78
2019-11-29 12:00:00 14.1 4 Oeste 12 Oeste 0 944 0.9 84
2019-11-29 11:00:00 13.5 5 Oeste 13 Oeste 0 943.9 1.6 87
2019-11-29 10:00:00 12.7 4 Sudoeste 9 Oeste 0 943.3 2 93
2019-11-29 09:00:00 12.4 2 Noroeste 10 Oeste 0 943.1 2.2 94
2019-11-29 08:00:00 12.5 3 Oeste 10 Oeste 0 942.3 1.8 94
2019-11-29 07:00:00 12.4 4 Sudoeste 9 Oeste 0 941.3 0.9 94
2019-11-29 06:00:00 12.5 5 Sudoeste 15 Oeste 0 940.9 0.8 94
2019-11-29 05:00:00 12.6 6 Oeste 21 Oeste 0 940.5 0.7 93
2019-11-29 04:00:00 12.5 6 Sudoeste 18 Oeste 0 940.4 0.8 93
2019-11-29 03:00:00 12.5 7 Oeste 21 Sudoeste 0 940.1 0.9 93
2019-11-29 02:00:00 12.3 9 Sudoeste 19 Sudoeste 0 939.8 1 93
2019-11-29 01:00:00 12.3 9 Sudoeste 22 Sudoeste 0 939.6 1.4 94
2019-11-29 00:00:00 11.9 9 Sudoeste 30 Sudoeste 0.2 939.2 1.2 95
2019-11-28 23:00:00 11.8 11 Sudoeste 35 Sudoeste 0 938.8 1.1 92
2019-11-28 22:00:00 11.8 13 Sudoeste 36 Sudoeste 0 938.2 1 92
2019-11-28 21:00:00 11.9 11 Sudoeste 33 Sudoeste 0 938 1 90
2019-11-28 20:00:00 12.9 13 Sudoeste 35 Sudoeste 0 937.7 0.8 80
2019-11-28 19:00:00 13.2 9 Sudoeste 30 Oeste 0 937.2 0.6 75
2019-11-28 18:00:00 13.5 12 Sudoeste 31 Sur 0 937 -0.1 73
2019-11-28 17:00:00 13.7 13 Sudoeste 33 Sudoeste 0 936.9 -0.8 74
2019-11-28 16:00:00 14.1 15 Sudoeste 35 Sudoeste 0 936.6 -1.7 72
2019-11-28 15:00:00 14.3 13 Sudoeste 38 Sudoeste 0 937.1 -1.9 72
2019-11-28 14:00:00 12.6 12 Sudoeste 35 Sur 0 937.7 -1.4 82
2019-11-28 13:00:00 12.8 14 Sudoeste 37 Sudoeste 0 938.3 -0.4 79
2019-11-28 12:00:00 12.1 12 Sudoeste 28 Oeste 0 939 1.3 84
2019-11-28 11:00:00 11.5 12 Sudoeste 28 Sudoeste 0 939.1 1.6 88
2019-11-28 10:00:00 11.4 9 Sudoeste 33 Sudoeste 0 938.7 1.4 85
2019-11-28 09:00:00 11 16 Sudoeste 35 Oeste 0 937.7 0.6 88
2019-11-28 08:00:00 10.8 13 Sudoeste 35 Sudoeste 0 937.5 0.7 89
2019-11-28 07:00:00 10.6 11 Sudoeste 30 Sudoeste 0 937.3 0.4 89
2019-11-28 06:00:00 10.3 12 Sudoeste 31 Sudoeste 0 937.1 0 90
2019-11-28 05:00:00 10.1 8 Sudoeste 36 Sudoeste 0 936.8 -0.3 91
2019-11-28 04:00:00 9.9 14 Sudoeste 30 Sudoeste 0 936.9 -0.1 93
2019-11-28 03:00:00 10.3 12 Sudoeste 24 Sudoeste 0 937.1 0 88
2019-11-28 02:00:00 10.2 10 Sudoeste 29 Sudoeste 0 937.1 -0.2 89
2019-11-28 01:00:00 10.3 14 Sudoeste 29 Sudoeste 0 937 0.3 89
2019-11-28 00:00:00 10 10 Sudoeste 29 Oeste 0 937.1 0.6 90
2019-11-27 23:00:00 9.8 8 Sudoeste 26 Sudoeste 0 937.3 0.8 88
2019-11-27 22:00:00 9.8 8 Sudoeste 22 Noroeste 0 936.7 0.5 90
2019-11-27 21:00:00 9.9 8 Sudoeste 22 Oeste 0.2 936.5 1.1 92
2019-11-27 20:00:00 10 7 Sudoeste 28 Oeste 0 936.5 1.8 91
2019-11-27 19:00:00 11.3 7 Sudoeste 27 Oeste 0 936.2 1.5 75
2019-11-27 18:00:00 11.6 10 Oeste 29 Oeste 0 935.4 0.9 72
2019-11-27 17:00:00 12.2 12 Sudoeste 29 Sur 0 934.7 0 71
2019-11-27 16:00:00 12.3 13 Sudoeste 35 Oeste 0 934.7 -0.6 71
2019-11-27 15:00:00 12.4 12 Sudoeste 35 Sudoeste 0 934.5 -1.7 71
2019-11-27 14:00:00 12.5 10 Sudoeste 31 Sudoeste 0 934.7 -1.5 72
2019-11-27 06:00:00 8.4 8 Sudoeste 27 Sur 0 933.5 0.6 88
2019-11-27 05:00:00 8.7 10 Sudoeste 24 Oeste 0 933 0.4 86
2019-11-27 04:00:00 9 10 Sudoeste 28 Oeste 0 933 0.5 81
2019-11-27 03:00:00 9.1 10 Sudoeste 33 Sudoeste 0 932.9 0.9 78
2019-11-27 02:00:00 9.7 11 Oeste 29 Oeste 0 932.6 0.6 85
2019-11-27 01:00:00 9.7 11 Sudoeste 33 Oeste 0 932.5 0.9 82
2019-11-27 00:00:00 10.1 8 Oeste 31 Oeste 0 932 0.9 86
2019-11-26 23:00:00 10.6 10 Oeste 35 Oeste 0 932 2.1 82
2019-11-26 22:00:00 11.1 12 Oeste 38 Noroeste 0 931.6 2 87
2019-11-26 21:00:00 11.8 10 Oeste 40 Oeste 0.6 931.1 2.2 89
2019-11-26 20:00:00 13.3 17 Sudoeste 42 Sudoeste 0 929.9 0.7 77
2019-11-26 19:00:00 13.5 15 Sudoeste 47 Sudoeste 0 929.6 -0.2 77
2019-11-26 18:00:00 14.2 19 Sudoeste 57 Oeste 0 928.9 -1.1 72
2019-11-26 17:00:00 15.1 19 Oeste 62 Sudoeste 0.4 929.2 -2.2 74
2019-11-26 16:00:00 15.9 18 Sudoeste 50 Sudoeste 0 929.8 -2.8 80
2019-11-26 15:00:00 16.6 16 Sudoeste 48 Oeste 0 930 -3.9 75
2019-11-26 14:00:00 16.2 17 Sudoeste 48 Sudoeste 0 931.4 -3 76
2019-11-26 13:00:00 15.3 16 Sudoeste 37 Sudoeste 0 932.6 -2 83
2019-11-26 12:00:00 14.5 13 Sudoeste 34 Sudoeste 0 933.9 -1 85
2019-11-26 11:00:00 13.6 13 Sudoeste 31 Sudoeste 0 934.4 -0.6 88
2019-11-26 10:00:00 13.5 12 Sudoeste 33 Sudoeste 0 934.6 -0.4 87
2019-11-26 09:00:00 12.9 12 Sudoeste 28 Oeste 0.4 934.9 -0.6 90
2019-11-26 08:00:00 12.4 5 Sudoeste 18 Sudoeste 1.2 935 -0.9 94
2019-11-26 07:00:00 12 6 Sur 15 Oeste 0 935 -2.2 92
2019-11-26 06:00:00 12 6 Sudoeste 19 Sudoeste 0 935.5 -1.7 91
2019-11-26 05:00:00 11.7 5 Sudoeste 19 Sudoeste 0 935.9 -1.9 85
2019-11-26 04:00:00 11.1 4 Oeste 12 Oeste 0 937.2 -1.5 89
2019-11-26 03:00:00 10.9 5 Sur 12 Sudoeste 0 937.2 -1.5 88
2019-11-26 02:00:00 11.2 6 Sudoeste 18 Sudoeste 0 937.8 -1.2 86
2019-11-26 01:00:00 11.2 4 Sudoeste 20 Sudoeste 0 938.7 -0.3 88
2019-11-26 00:00:00 11 5 Sudoeste 15 Sudoeste 0 938.7 -0.4 92
2019-11-25 23:00:00 11.3 4 Sudoeste 14 Sudoeste 0 939 -0.2 91
2019-11-25 22:00:00 11 3 Sur 15 Sudoeste 0 939 0.2 87
2019-11-25 21:00:00 11.3 5 Sudoeste 15 Oeste 0 939.1 0.7 84
2019-11-25 20:00:00 12 8 Oeste 23 Sudoeste 0 939.2 0.9 79
2019-11-25 19:00:00 12.2 9 Oeste 21 Oeste 0 938.8 0.6 77
2019-11-25 18:00:00 12.8 8 Oeste 21 Oeste 0 938.4 0.3 73
2019-11-25 17:00:00 13.5 6 Oeste 26 Sudoeste 0 938.3 0.4 71
2019-11-25 16:00:00 13.9 8 Oeste 31 Oeste 0 938.2 0.1 65
2019-11-25 15:00:00 14.2 10 Oeste 29 Oeste 0 938.1 -0.3 68
2019-11-25 14:00:00 14.4 9 Oeste 27 Oeste 0 937.9 0 62
2019-11-25 13:00:00 14.1 9 Oeste 27 Sudoeste 0 938.1 0.9 67
2019-11-25 12:00:00 13.8 10 Oeste 28 Oeste 0 938.4 1.6 74
2019-11-25 11:00:00 13 10 Oeste 28 Oeste 0 937.9 1.4 84
2019-11-25 10:00:00 11.6 4 Oeste 19 Sudoeste 0.2 937.2 1.3 92
2019-11-25 09:00:00 11.1 4 Oeste 21 Sudoeste 0.4 936.8 1.2 96
2019-11-25 08:00:00 11.4 9 Sudoeste 21 Sudoeste 0 936.5 0.8 91
2019-11-25 07:00:00 11.3 6 Sudoeste 21 Sudoeste 0 935.9 0.3 91
2019-11-25 06:00:00 11 5 Sudoeste 16 Oeste 0 935.6 0.6 91
2019-11-25 05:00:00 11 5 Sudoeste 19 Oeste 0 935.7 1 91
2019-11-25 04:00:00 11.5 6 Sudoeste 19 Sur 0 935.6 0.9 91
2019-11-25 03:00:00 11.3 6 Sudoeste 26 Sudoeste 0 935 0.2 92
2019-11-25 02:00:00 11.3 10 Sudoeste 26 Oeste 0.2 934.7 -0.3 93
2019-11-25 01:00:00 10.6 8 Sudoeste 23 Sudoeste 0.4 934.7 -0.1 96
2019-11-25 00:00:00 10.7 9 Sudoeste 30 Sudoeste 0.2 934.8 -0.6 94
2019-11-24 23:00:00 10.5 6 Sudoeste 27 Sudoeste 0.4 935 -0.7 93
2019-11-24 22:00:00 10.5 12 Sudoeste 26 Oeste 0 934.8 -1.8 89
2019-11-24 21:00:00 10.1 9 Sudoeste 25 Sudoeste 0 935.4 -1.6 90
2019-11-24 20:00:00 10 6 Sur 19 Sudoeste 0 935.7 -1.1 85
2019-11-24 19:00:00 10.1 5 Sur 19 Sudoeste 0 936.6 -0.5 85
2019-11-24 18:00:00 10.4 6 Sudoeste 24 Oeste 0 937 -0.3 83
2019-11-24 17:00:00 10.5 8 Sudoeste 21 Sudoeste 0 936.8 -1.2 78
2019-11-24 16:00:00 10.8 7 Sudoeste 20 Sudoeste 0 937.1 -1.8 73
2019-11-24 15:00:00 10.7 11 Sudoeste 24 Oeste 0 937.3 -2.5 70
2019-11-24 14:00:00 9.6 9 Sudoeste 21 Sur 0 938 -1.5 77
2019-11-24 13:00:00 8.9 8 Sudoeste 22 Oeste 0 938.9 0.1 77
2019-11-24 12:00:00 8.1 8 Oeste 17 Oeste 0 939.8 1.4 80
2019-11-24 11:00:00 6.7 7 Sudoeste 20 Oeste 0 939.5 1.4 87
2019-11-24 10:00:00 5.7 6 Oeste 18 Noroeste 0 938.8 0.7 91
2019-11-24 09:00:00 4.7 5 Sudoeste 15 Oeste 0 938.4 0.4 94
2019-11-24 08:00:00 4.1 3 Sudoeste 12 Sudoeste 0 938.1 0.4 93
2019-11-24 07:00:00 4.3 5 Sudoeste 15 Oeste 0 938.1 0.7 92
2019-11-24 06:00:00 4.4 6 Sudoeste 19 Sudoeste 0 938 0.9 92
2019-11-24 05:00:00 4.7 9 Sudoeste 20 Sudoeste 0 937.7 0.7 90
2019-11-24 04:00:00 4.9 7 Sudoeste 18 Sudoeste 0 937.4 0.8 89
2019-11-24 03:00:00 5.2 5 Sudoeste 18 Oeste 0 937.1 0.7 88
2019-11-24 02:00:00 5.9 7 Sudoeste 22 Oeste 0 937 1.2 86
2019-11-24 01:00:00 6.2 9 Sudoeste 20 Oeste 0 936.6 1.2 87
2019-11-24 00:00:00 6.7 7 Sudoeste 21 Oeste 0 936.4 1.5 86
2019-11-23 23:00:00 6.9 8 Oeste 30 Noroeste 0 935.8 1.6 82
2019-11-23 22:00:00 6.9 6 Oeste 19 Oeste 0 935.4 2.2 80
2019-11-23 21:00:00 7.4 10 Oeste 23 Sudoeste 0 934.9 2.3 76
2019-11-23 20:00:00 7.8 8 Oeste 22 Oeste 0 934.2 2.8 72
2019-11-23 19:00:00 8.5 6 Oeste 24 Oeste 0 933.2 2.5 69
2019-11-23 18:00:00 9.3 10 Oeste 26 Oeste 0 932.6 2.4 64
2019-11-23 17:00:00 10.3 8 Oeste 31 Sudoeste 0 931.4 1.4 62
2019-11-23 16:00:00 11.5 8 Oeste 29 Oeste 0 930.7 1.4 55
2019-11-23 15:00:00 12.3 9 Oeste 24 Noroeste 0 930.2 1.1 57
2019-11-23 14:00:00 11.7 9 Oeste 31 Sudoeste 0 930 1.7 57
2019-11-23 13:00:00 11 11 Oeste 34 Oeste 0 929.3 2.3 62
2019-11-23 12:00:00 10 12 Oeste 35 Oeste 0 929.1 3.5 65
2019-11-23 11:00:00 8.8 10 Oeste 33 Sudoeste 0 928.3 3.6 71
2019-11-23 10:00:00 6.9 14 Oeste 29 Oeste 0 927 3.7 78
2019-11-23 09:00:00 5.6 12 Oeste 30 Oeste 0 925.6 4.1 82
2019-11-23 08:00:00 5.4 6 Oeste 28 Sudoeste 0 924.7 4.3 78
2019-11-23 07:00:00 5.8 10 Oeste 30 Sudoeste 0 923.3 3.4 79
2019-11-23 06:00:00 6 13 Oeste 39 Oeste 0 921.5 3.2 82
2019-11-23 05:00:00 6.5 10 Oeste 35 Sudoeste 0 920.4 2.6 77
2019-11-23 04:00:00 6.9 11 Oeste 41 Noroeste 0 919.9 2.4 76
2019-11-23 03:00:00 7.2 10 Oeste 46 Oeste 0 918.3 1.7 77
2019-11-23 02:00:00 7.2 14 Oeste 40 Sudoeste 0 917.8 1.7 76
2019-11-23 01:00:00 7.4 15 Oeste 39 Oeste 0 917.5 2 79
2019-11-23 00:00:00 7.6 13 Oeste 38 Oeste 0 916.6 1.4 82
2019-11-22 23:00:00 8.6 16 Oeste 40 Oeste 0 916.1 1.5 80
2019-11-22 22:00:00 9.1 15 Sudoeste 40 Sudoeste 0 915.5 0.9 85
2019-11-22 21:00:00 9.4 11 Sudoeste 33 Oeste 0.2 915.2 0.4 87
2019-11-22 20:00:00 9.6 14 Sudoeste 40 Sudoeste 0 914.6 0.3 81
2019-11-22 19:00:00 9.6 14 Sudoeste 30 Sudoeste 0 914.6 0.9 83
2019-11-22 18:00:00 9.4 11 Oeste 33 Oeste 0.2 914.8 1.3 83
2019-11-22 17:00:00 11.8 15 Oeste 37 Sudoeste 0 914.3 0.7 70
2019-11-22 16:00:00 13 13 Sudoeste 41 Sudoeste 0 913.7 -0.2 72
2019-11-22 15:00:00 13.8 18 Sudoeste 39 Oeste 0 913.5 -1.5 69
2019-11-22 14:00:00 13.5 13 Sudoeste 48 Sudoeste 0 913.6 -1.8 82
2019-11-22 13:00:00 12.7 18 Sudoeste 48 Sudoeste 0.2 913.9 -3.2 86
2019-11-22 12:00:00 11.7 13 Sudoeste 45 Sudoeste 0.8 915 -3.3 87
2019-11-22 11:00:00 12.6 9 Sur 33 Sur 0 915.4 -4 76
2019-11-22 10:00:00 10.1 8 Sur 33 Sudoeste 0 917.1 -4.4 85
2019-11-22 09:00:00 9.1 13 Sur 33 Sur 0 918.3 -4.7 87
2019-11-22 08:00:00 8.2 10 Sur 31 Sudeste 0.2 919.4 -5 92
2019-11-22 07:00:00 7.9 8 Sur 19 Sur 1.2 921.5 -3.8 94
2019-11-22 06:00:00 8.1 6 Sur 19 Sudoeste 1 923 -3.4 93
2019-11-22 05:00:00 8.4 6 Sudoeste 19 Sudoeste 0 924.4 -3 89
2019-11-22 04:00:00 8.2 6 Sur 15 Sudoeste 0 925.3 -3 88
2019-11-22 03:00:00 8.1 5 Sur 16 Sudoeste 0 926.4 -2.2 89
2019-11-22 02:00:00 8.1 5 Sudoeste 18 Sudoeste 0 927.4 -1.9 90
2019-11-22 01:00:00 8 4 Sudoeste 12 Sudoeste 0 928.3 -1.3 89
2019-11-22 00:00:00 7.9 5 Sur 15 Sur 0 928.6 -1.2 90
2019-11-21 23:00:00 7.5 4 Sudoeste 11 Sudoeste 0 929.3 -0.9 88
2019-11-21 22:00:00 7.4 3 Sudoeste 11 Sur 0 929.6 -0.2 86
2019-11-21 21:00:00 7.4 4 Sur 10 Sur 0 929.8 -0.1 85
2019-11-21 20:00:00 6.9 3 Oeste 7 Sur 0 930.2 0.4 84
2019-11-21 19:00:00 8.1 2 Oeste 12 Sudoeste 0 929.8 -0.1 78
2019-11-21 18:00:00 9.1 6 Sudoeste 14 Oeste 0 929.9 0 72
2019-11-21 17:00:00 9.6 6 Oeste 18 Noroeste 0 929.8 -0.4 69
2019-11-21 16:00:00 10.4 6 Oeste 22 Oeste 0.4 929.9 -0.5 71
2019-11-21 15:00:00 11.4 4 Noroeste 17 Noroeste 0 929.9 -1.1 64
2019-11-21 14:00:00 11.6 5 Oeste 18 Oeste 0 930.2 -0.8 63
2019-11-21 13:00:00 9.7 7 Oeste 18 Oeste 0 930.4 -0.2 72
2019-11-21 12:00:00 9.2 5 Oeste 20 Sudoeste 0 931 0.8 77
2019-11-21 11:00:00 8.1 6 Sudoeste 18 Oeste 0 931 1.4 84
2019-11-21 10:00:00 7.2 7 Sudoeste 19 Oeste 0 930.6 1 91
2019-11-21 09:00:00 6.9 6 Sudoeste 15 Sudoeste 0 930.2 0.6 94
2019-11-21 08:00:00 -- -- -- -- -- -- -- -- --
2019-11-21 07:00:00 -- -- -- -- -- -- -- -- --
2019-11-21 06:00:00 -- -- -- -- -- -- -- -- --
2019-11-21 05:00:00 -- -- -- -- -- -- -- -- --
2019-11-21 04:00:00 -- -- -- -- -- -- -- -- --
2019-11-21 03:00:00 -- -- -- -- -- -- -- -- --
2019-11-21 02:00:00 -- -- -- -- -- -- -- -- --
2019-11-21 01:00:00 -- -- -- -- -- -- -- -- --
2019-11-21 00:00:00 -- -- -- -- -- -- -- -- --
2019-11-20 23:00:00 -- -- -- -- -- -- -- -- --
2019-11-20 22:00:00 -- -- -- -- -- -- -- -- --
2019-11-20 21:00:00 -- -- -- -- -- -- -- -- --
2019-11-20 20:00:00 -- -- -- -- -- -- -- -- --
2019-11-20 19:00:00 7.6 6 Sudoeste 14 Sur 0 930.1 -0.1 85
2019-11-20 18:00:00 8.2 7 Sudoeste 20 Sudoeste 0 930 -0.5 83
2019-11-20 17:00:00 8.7 6 Sudoeste 21 Sudoeste 0 930 -1.1 82
2019-11-20 16:00:00 8.2 7 Sudoeste 24 Sudoeste 0 930.2 -1.5 86
2019-11-20 15:00:00 7.6 5 Sur 13 Sur 0.2 930.5 -1.9 92
2019-11-20 14:00:00 7.6 5 Sudoeste 14 Sudoeste 0.8 931.1 -1.6 93
2019-11-20 13:00:00 7.1 4 Sur 16 Sudoeste 0 931.7 -1.1 94
2019-11-20 12:00:00 6.4 6 Sudoeste 16 Sudoeste 2 932.4 -0.4 94
2019-11-20 11:00:00 6.4 5 Sudoeste 21 Oeste 2.2 932.7 0 94
2019-11-20 10:00:00 6.7 4 Sudoeste 13 Sudoeste 0.2 932.8 -0.1 94
2019-11-20 09:00:00 6.2 2 Norte 6 Sur 0.2 932.8 -0.4 97
2019-11-20 08:00:00 6 3 Sudeste 9 Sudeste 0.6 932.7 -1.1 98
2019-11-20 07:00:00 5.9 3 Sudeste 8 Sudeste 0.2 932.9 -1.5 98
2019-11-20 06:00:00 5.8 4 Sudeste 8 Este 0.2 933.2 -1.7 97
2019-11-20 05:00:00 5.8 4 Sudeste 9 Sur 1 933.8 -1.9 96
2019-11-20 04:00:00 5.8 4 Sur 13 Sur 0.4 934.4 -1.9 96
2019-11-20 03:00:00 6.1 6 Sur 13 Sur 0.6 934.9 -1.6 94
2019-11-20 02:00:00 6.8 3 Oeste 9 Sudoeste 0.2 935.7 -1.4 86
2019-11-20 01:00:00 7.4 4 Oeste 12 Sudoeste 0 936.3 -1 80
2019-11-20 00:00:00 7.7 3 Oeste 13 Sudoeste 0 936.5 -0.9 78
2019-11-19 23:00:00 7.3 3 Sudoeste 8 Sur 0 937.1 -0.5 81
2019-11-19 22:00:00 7.3 2 Sudeste 4 Sudeste 0 937.3 -0.2 84
2019-11-19 21:00:00 7.4 2 Sudoeste 6 Sudoeste 0 937.4 -0.2 81
2019-11-19 20:00:00 7.6 0 Calma 3 Sur 0 937.6 -0.3 83
2019-11-19 19:00:00 7.7 3 Este 7 Este 0 937.5 -0.7 81
2019-11-19 18:00:00 7.8 3 Este 4 Este 0 937.6 -1.3 81
2019-11-19 17:00:00 8.2 3 Sudeste 7 Sudeste 0 937.9 -1.8 78
2019-11-19 16:00:00 8.2 2 Este 6 Sudeste 0 938.2 -2.3 77
2019-11-19 15:00:00 7.2 3 Nordeste 5 Nordeste 0 938.9 -2.3 79
2019-11-19 14:00:00 4.9 4 Este 8 Este 0 939.7 -1.8 87
2019-11-19 13:00:00 3.9 5 Este 8 Este 0 940.5 -1.2 90
2019-11-19 12:00:00 3 3 Nordeste 8 Nordeste 0 941.2 -0.3 88
2019-11-19 11:00:00 1.2 3 Nordeste 5 Norte 0 941.5 0.3 92
2019-11-19 10:00:00 -0.3 0 Calma 4 Norte 0 941.7 0.4 96
2019-11-19 09:00:00 -0.9 4 Este 5 Este 0 941.5 0.3 94
2019-11-19 08:00:00 -0.9 0 Calma 3 Norte 0 941.2 -0.1 95
2019-11-19 07:00:00 -0.9 0 Calma 3 Norte 0 941.3 -0.2 94
2019-11-19 06:00:00 -0.6 2 Norte 5 Nordeste 0 941.2 -0.3 93
2019-11-19 05:00:00 -0.1 2 Noroeste 4 Norte 0 941.3 -0.2 94
2019-11-19 04:00:00 0.2 2 Norte 5 Nordeste 0 941.5 -0.4 92
2019-11-19 03:00:00 0.8 2 Nordeste 5 Nordeste 0 941.5 -0.4 89
2019-11-19 02:00:00 2 3 Norte 4 Norte 0 941.5 -0.7 87
2019-11-19 01:00:00 2.7 2 Noroeste 6 Noroeste 0 941.9 -0.2 85
2019-11-19 00:00:00 3.6 3 Noroeste 6 Norte 0 941.9 0.1 81
2019-11-18 23:00:00 4.9 3 Noroeste 6 Norte 0 942.2 0.9 76
2019-11-18 22:00:00 5.7 2 Noroeste 4 Nordeste 0 942.1 1.2 73
2019-11-18 21:00:00 6.4 2 Este 7 Oeste 0 941.8 1.2 71
2019-11-18 20:00:00 7.1 3 Oeste 6 Norte 0 941.3 0.9 68
2019-11-18 19:00:00 8.2 4 Noroeste 5 Norte 0 940.9 0.8 64
2019-11-18 18:00:00 9.6 3 Norte 15 Norte 0 940.6 0.6 55
2019-11-18 17:00:00 10.8 6 Nordeste 18 Este 0 940.4 0.3 52
2019-11-18 16:00:00 11.8 6 Norte 19 Norte 0 940.1 -0.5 50
2019-11-18 15:00:00 12.7 4 Este 11 Nordeste 0 940 -0.9 50
2019-11-18 14:00:00 11.6 3 Este 9 Nordeste 0 940.1 -0.6 57
2019-11-18 13:00:00 10.4 4 Sudoeste 10 Norte 0 940.6 0.3 57
2019-11-18 12:00:00 7.8 6 Nordeste 9 Norte 0 940.9 1.1 68
2019-11-18 11:00:00 5.1 3 Este 6 Este 0 940.7 1.6 79
2019-11-18 10:00:00 2.1 3 Nordeste 7 Este 0 940.3 1.7 94
2019-11-18 09:00:00 1.1 0 Calma 8 Sudoeste 0 939.8 1.9 92
2019-11-18 08:00:00 1.7 3 Sur 8 Sudoeste 0 939.1 1.9 92
2019-11-18 07:00:00 1.5 3 Sudoeste 8 Sur 0 938.6 2 92
2019-11-18 06:00:00 1.6 3 Sur 6 Sudeste 0 937.9 1.3 91
2019-11-18 05:00:00 2 3 Oeste 5 Oeste 0 937.2 1 91
2019-11-18 04:00:00 2.7 3 Nordeste 10 Norte 0 936.6 0.8 87
2019-11-18 03:00:00 3.4 3 Sur 7 Sudoeste 0 936.6 1 89
2019-11-18 02:00:00 4 3 Noroeste 18 Norte 0 936.2 0.6 88
2019-11-18 01:00:00 4.3 5 Noroeste 15 Oeste 0 935.8 0.5 87
2019-11-18 00:00:00 4.6 6 Oeste 18 Noroeste 0 935.6 0.8 84
2019-11-17 23:00:00 5.1 5 Oeste 17 Noroeste 0 935.6 0.8 80
2019-11-17 22:00:00 5.6 6 Oeste 20 Noroeste 0 935.3 0.6 77
2019-11-17 21:00:00 6.3 8 Oeste 23 Noroeste 0 934.8 1 72
2019-11-17 20:00:00 7.3 8 Oeste 19 Oeste 0 934.8 1.1 68
2019-11-17 19:00:00 8.4 6 Oeste 28 Noroeste 0 934.7 0.8 67
2019-11-17 18:00:00 9.9 10 Noroeste 25 Noroeste 0 933.8 -0.6 62
2019-11-17 17:00:00 11.4 10 Oeste 27 Oeste 0 933.7 -1.1 64
2019-11-17 16:00:00 12.4 7 Oeste 30 Noroeste 0 933.9 -1.5 69
2019-11-17 15:00:00 12.4 10 Oeste 29 Oeste 0 934.4 -1.7 72
2019-11-17 14:00:00 10.6 10 Oeste 31 Oeste 0 934.8 -1.2 83
2019-11-17 13:00:00 9.3 10 Oeste 29 Sudoeste 0 935.4 -1 90
2019-11-17 12:00:00 8.3 10 Oeste 25 Oeste 0 936.1 -0.4 91
2019-11-17 11:00:00 7.6 9 Sudoeste 23 Sudoeste 0 936 -0.7 91
2019-11-17 10:00:00 6.7 6 Sudoeste 21 Sudoeste 0 936.4 -0.5 93
2019-11-17 09:00:00 6 9 Sudoeste 22 Sudoeste 0 936.5 -0.9 92
2019-11-17 08:00:00 5.8 7 Sudoeste 22 Sudoeste 0 936.7 -1 91
2019-11-17 07:00:00 5.7 8 Sudoeste 18 Oeste 0 936.9 -1 89
2019-11-17 06:00:00 5.8 7 Sudoeste 20 Sudoeste 0 937.4 -0.8 87
2019-11-17 05:00:00 5.7 8 Sudoeste 19 Sudoeste 0 937.7 -1.1 82
2019-11-17 04:00:00 5.7 5 Sudoeste 23 Sudoeste 0 937.9 -1.3 80
2019-11-17 03:00:00 5.8 9 Sudoeste 24 Sudoeste 0 938.2 -1.4 77
2019-11-17 02:00:00 5.4 8 Sudoeste 22 Oeste 0 938.8 -0.8 77
2019-11-17 01:00:00 5.4 10 Oeste 24 Oeste 0 939.2 -0.5 77
2019-11-17 00:00:00 5.4 7 Oeste 18 Oeste 0 939.6 -0.2 78
2019-11-16 23:00:00 5.8 8 Oeste 19 Oeste 0 939.6 0 75
2019-11-16 22:00:00 5.5 6 Sudoeste 15 Oeste 0 939.7 -0.1 74
2019-11-16 21:00:00 5.5 6 Oeste 18 Oeste 0 939.8 0.4 72
2019-11-16 20:00:00 5.6 7 Sudoeste 19 Oeste 0 939.6 0.5 72
2019-11-16 19:00:00 5.8 7 Sudoeste 19 Oeste 0 939.8 1.1 71
2019-11-16 18:00:00 7 6 Oeste 26 Noroeste 0 939.4 0.9 60
2019-11-16 17:00:00 8.2 10 Sudoeste 25 Sudoeste 0 939.1 0.5 60
2019-11-16 16:00:00 9.6 8 Oeste 17 Sudoeste 0 938.7 -0.3 53
2019-11-16 15:00:00 10.2 9 Oeste 20 Oeste 0 938.5 -0.7 50
2019-11-16 14:00:00 9.4 7 Oeste 17 Noroeste 0 938.6 -0.3 56
2019-11-16 13:00:00 8.9 5 Oeste 19 Sudoeste 0 939 0.3 62
2019-11-16 12:00:00 7.6 6 Oeste 19 Oeste 0 939.2 0.9 68
2019-11-16 11:00:00 5.4 5 Sudoeste 12 Oeste 0 938.9 1.3 75
2019-11-16 10:00:00 2.3 2 Sur 14 Sudoeste 0 938.7 1.8 85
2019-11-16 09:00:00 0.5 5 Oeste 12 Sudoeste 0 938.3 1.8 89
2019-11-16 08:00:00 0 3 Sur 8 Oeste 0 937.6 1.6 90
2019-11-16 07:00:00 0.6 3 Oeste 8 Noroeste 0 936.9 1.3 87
2019-11-16 06:00:00 0.8 2 Sudoeste 10 Noroeste 0 936.5 1.5 86
2019-11-16 05:00:00 0.9 4 Noroeste 14 Oeste 0 936 1.4 86
2019-11-16 04:00:00 1.2 4 Oeste 14 Oeste 0 935.6 1.2 85
2019-11-16 03:00:00 1.4 3 Oeste 13 Oeste 0 935 1 86
2019-11-16 02:00:00 1.8 3 Oeste 12 Oeste 0 934.6 1.2 85
2019-11-16 01:00:00 2.2 4 Oeste 9 Noroeste 0 934.4 1.8 85
2019-11-16 00:00:00 2.8 3 Oeste 12 Noroeste 0 934 2.2 83